Huvudsida
METAR-TAF:

METAR-TAF

Flygplatser :

Hans Christian Andersens flygplats

Odense, Danmark

latitud: 55-29N, longitud: 010-20E, höjd: 17 m

Aktuellt väderrapport

Denna rapport gjordes för 26 minuter sedan, klockan 12:50 UTC
Vind 12 kt från syd i byarna ända upp till 23 kt
Temperatur 18°C
Fuktighet 94%
Tryck 1005 hPa
Sikt 10 km eller mer
Spridda moln på en höjd av 1000 ft
Brutna moln på en höjd av 1800 ft

METAR: EKOD 171250Z 19012G23KT 9999 SCT010 BKN018 18/17 Q1005

Tid: 15:16 (13:16 UTC)

Väderprognos

Denna rapport gjordes för 4 timmar och 14 minuter sedan, klockan 09:02 UTC
Prognos gäller från 17 kl. 09 UTC till 17 kl. 15 UTC
Vind 12 kt från syd
Sikt: 8000 m
Brutna moln på en höjd av 2000 ft
lätt regn, duggregn
Temporärt
från 17 kl. 09 UTC till 17 kl. 15 UTC
Sikt: 4000 m
Brutna moln på en höjd av 800 ft
lätt regn, duggregn, fuktdis

TAF: EKOD 170902Z 1709/1715 18012KT 8000 -RADZ BKN020 TEMPO 1709/1715 4000 -RADZ BR BKN008

Aktuella väderrapporter och prognoser från 4000 flygplatser (METAR- och TAF-rapporter).

De tillgängliga stationerna syns som gula och röda prickar på kartan.

För musen över prickarna för att se namnen på stationerna.

Klicka sedan för att få väderrapporter och prognoser.

För att ändra kartan: Klicka på de gröna knapparna med ett svart kors på för att zooma in; den gröna knappen med ett streck på för att zooma ut; eller på de gröna pilarna för angränsande kartor.


METAR-TAF: